Current Weather

Cox Fld

Paris, Texas (KPRX)

Report from: Friday, February 23, 2024 1:56 PM CST
Current time: Friday, February 23, 2024 2:53 PM CST

Nearby weather – Weather history – Daily summaries
Weather forecast

Temperature20.6°C (69.1°F)
Dew point0.0°C (32.0°F)
Winds 16 kts (8.2 m/s, 18.4 mph) West-Northwest (300°)
Visibility10 mi. (16.1 km)
Clouds Sky clear
Altimeter30.04 in.Hg (1017 mB)
Relative humidity25 %
Density altitude628 ft. (191 m)
Sea-level pressure101.7 kPa (1017 mB, 30.03 in.Hg)
Remarks Fully automated report
Automated weather observing station with precipitation discriminator
Flight conditions Visual Meteorological Conditions
Raw dataKPRX 231956Z AUTO 30016KT 10SM CLR 21/00 A3004 RMK AO2 SLP169 T02060000
An error has occurred. This application may no longer respond until reloaded. Reload 🗙